createdAt,value
2016-07-13T00:00:13.067Z,22.80
2016-07-13T00:01:11.411Z,22.90
2016-07-13T00:02:10.194Z,22.90
2016-07-13T00:03:15.287Z,22.90
2016-07-13T00:04:15.291Z,22.90
2016-07-13T00:05:13.592Z,22.80
2016-07-13T00:06:12.166Z,22.80
2016-07-13T00:07:11.717Z,22.80
2016-07-13T00:08:16.481Z,22.80
2016-07-13T00:09:14.224Z,22.90
2016-07-13T00:10:10.660Z,22.80
2016-07-13T00:11:14.865Z,22.80
2016-07-13T00:12:09.496Z,22.80
2016-07-13T00:13:15.185Z,22.80
2016-07-13T00:14:14.067Z,22.80
2016-07-13T00:15:10.899Z,22.80
2016-07-13T00:16:11.117Z,22.80
2016-07-13T00:17:11.015Z,22.80
2016-07-13T00:18:13.668Z,22.80
2016-07-13T00:19:12.248Z,22.80
2016-07-13T00:31:15.012Z,22.80
2016-07-13T00:32:12.868Z,22.80
2016-07-13T00:33:11.443Z,22.80
2016-07-13T00:34:11.755Z,22.80
2016-07-13T00:35:14.017Z,22.80
2016-07-13T00:36:12.490Z,22.80
2016-07-13T00:37:12.700Z,22.80
2016-07-13T00:38:11.376Z,22.80
2016-07-13T00:39:14.967Z,22.80
2016-07-13T00:40:12.314Z,22.80
2016-07-13T00:41:13.139Z,22.80
2016-07-13T00:42:13.116Z,22.80
2016-07-13T00:43:15.827Z,22.80
2016-07-13T00:44:14.391Z,22.80
2016-07-13T00:45:12.043Z,22.80
2016-07-13T00:46:11.110Z,22.80
2016-07-13T00:47:14.382Z,22.80
2016-07-13T00:48:13.908Z,22.80
2016-07-13T00:49:16.339Z,22.80
2016-07-13T00:50:13.719Z,22.80
2016-07-13T00:51:12.087Z,22.80
2016-07-13T00:52:12.607Z,22.80
2016-07-13T00:53:14.019Z,22.80
2016-07-13T00:54:12.913Z,22.80
2016-07-13T00:55:12.731Z,22.80
2016-07-13T00:56:15.338Z,22.80
2016-07-13T00:57:09.487Z,22.80
2016-07-13T00:58:16.048Z,22.80
2016-07-13T00:59:12.846Z,22.80
2016-07-13T01:00:12.460Z,22.80
2016-07-13T01:01:15.229Z,22.80
2016-07-13T01:02:14.728Z,22.80
2016-07-13T01:03:12.074Z,22.80
2016-07-13T01:04:13.040Z,22.80
2016-07-13T01:05:17.358Z,22.80
2016-07-13T01:06:14.872Z,22.80
2016-07-13T01:07:15.356Z,22.80
2016-07-13T01:08:14.567Z,22.80
2016-07-13T01:09:15.165Z,22.80
2016-07-13T01:10:11.099Z,22.80
2016-07-13T01:11:16.023Z,22.80
2016-07-13T01:12:17.027Z,22.80
2016-07-13T01:13:12.455Z,22.80
2016-07-13T01:14:13.694Z,22.80
2016-07-13T01:15:12.776Z,22.80
2016-07-13T01:16:11.146Z,22.80
2016-07-13T01:17:12.587Z,22.80
2016-07-13T01:18:13.720Z,22.80
2016-07-13T01:19:09.841Z,22.80
2016-07-13T01:20:13.104Z,22.80
2016-07-13T01:21:12.924Z,22.80
2016-07-13T01:22:12.010Z,22.80
2016-07-13T01:23:10.070Z,22.80
2016-07-13T01:24:11.968Z,22.80
2016-07-13T01:25:09.641Z,22.80
2016-07-13T01:26:12.142Z,22.80
2016-07-13T01:27:12.968Z,22.80
2016-07-13T01:28:13.179Z,22.80
2016-07-13T01:29:12.879Z,22.80
2016-07-13T01:30:12.990Z,22.80
2016-07-13T01:31:12.795Z,22.70
2016-07-13T01:32:13.721Z,22.80
2016-07-13T01:33:13.218Z,22.80
2016-07-13T01:34:12.302Z,22.80
2016-07-13T01:35:14.971Z,22.80
2016-07-13T01:36:11.293Z,22.80
2016-07-13T01:37:14.782Z,22.70
2016-07-13T01:38:16.189Z,22.80
2016-07-13T01:39:11.725Z,22.80
2016-07-13T01:40:12.367Z,22.70
2016-07-13T01:41:12.969Z,22.70
2016-07-13T01:42:15.050Z,22.70
2016-07-13T01:43:15.441Z,22.70
2016-07-13T01:44:13.231Z,22.70
2016-07-13T01:45:12.588Z,22.70
2016-07-13T01:46:15.240Z,22.70
2016-07-13T01:47:11.681Z,22.70
2016-07-13T01:48:15.272Z,22.70
2016-07-13T01:49:16.714Z,22.70
2016-07-13T01:50:14.163Z,22.70
2016-07-13T01:51:11.296Z,22.70
2016-07-13T01:52:12.186Z,22.70
2016-07-13T01:53:13.319Z,22.70
2016-07-13T01:54:11.565Z,22.70
2016-07-13T01:55:11.015Z,22.70
2016-07-13T01:56:11.031Z,22.70
2016-07-13T01:57:12.165Z,22.70
2016-07-13T01:58:13.503Z,22.70
2016-07-13T01:59:13.204Z,22.70
2016-07-13T02:00:13.109Z,22.70
2016-07-13T02:01:14.794Z,22.70
2016-07-13T02:02:13.533Z,22.70
2016-07-13T02:03:15.332Z,22.70
2016-07-13T02:04:12.425Z,22.70
2016-07-13T02:05:15.092Z,22.70
2016-07-13T02:06:11.747Z,22.70
2016-07-13T02:07:15.005Z,22.70
2016-07-13T02:08:13.435Z,22.70
2016-07-13T02:09:11.741Z,22.70
2016-07-13T02:10:14.923Z,22.70
2016-07-13T02:11:11.756Z,22.70
2016-07-13T02:12:15.859Z,22.70
2016-07-13T02:13:13.173Z,22.70
2016-07-13T02:14:16.460Z,22.70
2016-07-13T02:15:14.651Z,22.70
2016-07-13T02:16:09.666Z,22.70
2016-07-13T02:17:12.722Z,22.70
2016-07-13T02:18:10.023Z,22.70
2016-07-13T02:19:12.941Z,22.70
2016-07-13T02:20:10.671Z,22.70
2016-07-13T02:21:12.036Z,22.70
2016-07-13T02:22:14.909Z,22.70
2016-07-13T02:23:14.772Z,22.70
2016-07-13T02:24:11.032Z,22.70
2016-07-13T02:25:15.136Z,22.70
2016-07-13T02:26:12.912Z,22.70
2016-07-13T02:27:14.843Z,22.70
2016-07-13T02:28:14.748Z,22.70
2016-07-13T02:29:13.693Z,22.70
2016-07-13T02:30:15.378Z,22.70
2016-07-13T02:31:12.735Z,22.70
2016-07-13T02:32:11.141Z,22.70
2016-07-13T02:33:13.659Z,22.70
2016-07-13T02:34:13.871Z,22.70
2016-07-13T02:35:13.269Z,22.70
2016-07-13T02:36:14.803Z,22.70
2016-07-13T02:37:15.114Z,22.70
2016-07-13T02:38:11.033Z,22.70
2016-07-13T02:39:11.655Z,22.70
2016-07-13T02:40:13.075Z,22.70
2016-07-13T02:41:16.998Z,22.70
2016-07-13T02:42:12.393Z,22.70
2016-07-13T02:43:11.888Z,22.70
2016-07-13T02:44:13.228Z,22.70
2016-07-13T02:45:10.675Z,22.70
2016-07-13T02:46:15.302Z,22.70
2016-07-13T02:47:15.225Z,22.70
2016-07-13T02:48:12.025Z,22.70
2016-07-13T02:49:13.775Z,22.70
2016-07-13T02:50:11.326Z,22.70
2016-07-13T02:51:12.869Z,22.70
2016-07-13T02:52:14.924Z,22.70
2016-07-13T02:53:14.218Z,22.70
2016-07-13T02:54:14.119Z,22.70
2016-07-13T02:55:14.740Z,22.70
2016-07-13T02:56:11.779Z,22.70
2016-07-13T02:57:13.938Z,22.70
2016-07-13T02:58:10.975Z,22.70
2016-07-13T02:59:13.746Z,22.70
2016-07-13T03:00:15.181Z,22.70
2016-07-13T03:01:11.406Z,22.70
2016-07-13T03:02:12.548Z,22.70
2016-07-13T03:03:12.450Z,22.70
2016-07-13T03:04:11.661Z,22.70
2016-07-13T03:05:15.204Z,22.70
2016-07-13T03:06:12.979Z,22.70
2016-07-13T03:07:14.422Z,22.70
2016-07-13T03:08:11.662Z,22.70
2016-07-13T03:09:15.878Z,22.70
2016-07-13T03:10:15.450Z,22.70
2016-07-13T03:11:16.077Z,22.70
2016-07-13T03:12:12.923Z,22.70
2016-07-13T03:13:12.702Z,22.70
2016-07-13T03:14:12.424Z,22.70
2016-07-13T03:15:11.202Z,22.70
2016-07-13T03:16:12.335Z,22.70
2016-07-13T03:17:11.729Z,22.70
2016-07-13T03:18:13.784Z,22.70
2016-07-13T03:19:15.279Z,22.70
2016-07-13T03:20:15.233Z,22.70
2016-07-13T03:21:11.349Z,22.70
2016-07-13T03:22:08.986Z,22.70
2016-07-13T03:23:11.057Z,22.70
2016-07-13T03:24:12.087Z,22.70
2016-07-13T03:25:10.043Z,22.70
2016-07-13T03:26:10.976Z,22.70
2016-07-13T03:27:11.802Z,22.70
2016-07-13T03:28:15.188Z,22.70
2016-07-13T03:29:11.305Z,22.70
2016-07-13T03:30:11.109Z,22.70
2016-07-13T03:31:13.165Z,22.70
2016-07-13T03:32:17.788Z,22.70
2016-07-13T03:33:11.330Z,22.70
2016-07-13T03:34:14.415Z,22.70
2016-07-13T03:35:12.886Z,22.70
2016-07-13T03:36:11.450Z,22.70
2016-07-13T03:37:11.368Z,22.70
2016-07-13T03:38:14.547Z,22.70
2016-07-13T03:39:15.476Z,22.70
2016-07-13T03:40:11.388Z,22.70
2016-07-13T03:41:11.906Z,22.70
2016-07-13T03:42:11.915Z,22.70
2016-07-13T03:43:15.050Z,22.70
2016-07-13T03:44:13.567Z,22.70
2016-07-13T03:45:11.019Z,22.70
2016-07-13T03:46:10.530Z,22.70
2016-07-13T03:47:11.848Z,22.70
2016-07-13T03:48:13.290Z,22.70
2016-07-13T03:49:12.374Z,22.70
2016-07-13T03:50:11.773Z,22.70
2016-07-13T03:51:17.166Z,22.70
2016-07-13T03:52:13.530Z,22.70
2016-07-13T03:53:12.507Z,22.70
2016-07-13T03:54:13.231Z,22.70
2016-07-13T03:55:13.342Z,22.70
2016-07-13T03:56:13.144Z,22.70
2016-07-13T03:57:09.896Z,22.70
2016-07-13T03:58:12.545Z,22.70
2016-07-13T03:59:12.449Z,22.70
2016-07-13T04:00:17.269Z,22.70
2016-07-13T04:01:12.976Z,22.70
2016-07-13T04:02:15.952Z,22.70
2016-07-13T04:03:11.865Z,22.70
2016-07-13T04:04:12.279Z,22.60
2016-07-13T04:05:13.313Z,22.70
2016-07-13T04:06:15.667Z,22.60
2016-07-13T04:07:11.690Z,22.70
2016-07-13T04:08:15.074Z,22.70
2016-07-13T04:09:11.498Z,22.70
2016-07-13T04:10:11.198Z,22.60
2016-07-13T04:11:10.779Z,22.60
2016-07-13T04:12:13.261Z,22.60
2016-07-13T04:13:14.905Z,22.60
2016-07-13T04:14:12.774Z,22.70
2016-07-13T04:15:12.669Z,22.60
2016-07-13T04:16:11.958Z,22.70
2016-07-13T04:17:11.043Z,22.60
2016-07-13T04:18:10.643Z,22.70
2016-07-13T04:19:11.366Z,22.60
2016-07-13T04:20:14.414Z,22.60
2016-07-13T04:21:13.327Z,22.70
2016-07-13T04:22:11.491Z,22.70
2016-07-13T04:23:10.884Z,22.70
2016-07-13T04:24:14.676Z,22.70
2016-07-13T04:25:14.894Z,22.60
2016-07-13T04:26:12.645Z,22.70
2016-07-13T04:27:11.248Z,22.60
2016-07-13T04:28:14.096Z,22.60
2016-07-13T04:29:13.284Z,22.60
2016-07-13T04:30:12.574Z,22.70
2016-07-13T04:31:12.376Z,22.60
2016-07-13T04:32:11.666Z,22.70
2016-07-13T04:33:11.755Z,22.60
2016-07-13T04:34:15.470Z,22.60
2016-07-13T04:35:13.327Z,22.70
2016-07-13T04:36:09.308Z,22.60
2016-07-13T04:37:14.979Z,22.60
2016-07-13T04:38:11.203Z,22.60
2016-07-13T04:39:12.656Z,22.60
2016-07-13T04:40:14.345Z,22.60
2016-07-13T04:41:12.719Z,22.60
2016-07-13T04:42:11.434Z,22.60
2016-07-13T04:43:11.340Z,22.70
2016-07-13T04:44:11.653Z,22.60
2016-07-13T04:45:13.605Z,22.60
2016-07-13T04:46:13.816Z,22.60
2016-07-13T04:47:11.982Z,22.60
2016-07-13T04:48:14.037Z,22.60
2016-07-13T04:49:13.357Z,22.60
2016-07-13T04:50:11.936Z,22.60
2016-07-13T04:51:13.957Z,22.70
2016-07-13T04:52:13.758Z,22.60
2016-07-13T04:53:11.514Z,22.60
2016-07-13T04:54:11.625Z,22.60
2016-07-13T04:55:14.191Z,22.60
2016-07-13T04:56:11.536Z,22.60
2016-07-13T04:57:14.836Z,22.60
2016-07-13T04:58:11.551Z,22.60
2016-07-13T04:59:12.581Z,22.60
2016-07-13T05:00:13.101Z,22.60
2016-07-13T05:01:10.890Z,22.60
2016-07-13T05:02:11.938Z,22.70
2016-07-13T05:03:11.074Z,22.60
2016-07-13T05:04:12.004Z,22.70
2016-07-13T05:05:13.753Z,22.70
2016-07-13T05:06:12.531Z,22.60
2016-07-13T05:07:11.967Z,22.60
2016-07-13T05:08:09.778Z,22.70
2016-07-13T05:09:15.161Z,22.60
2016-07-13T05:10:08.806Z,22.60
2016-07-13T05:11:14.679Z,22.60
2016-07-13T05:12:10.891Z,22.60
2016-07-13T05:13:12.367Z,22.60
2016-07-13T05:14:13.511Z,22.60
2016-07-13T05:15:11.728Z,22.60
2016-07-13T05:16:14.757Z,22.60
2016-07-13T05:17:11.394Z,22.60
2016-07-13T05:18:16.849Z,22.60
2016-07-13T05:19:14.846Z,22.60
2016-07-13T05:20:13.354Z,22.60
2016-07-13T05:21:11.823Z,22.60
2016-07-13T05:22:11.626Z,22.60
2016-07-13T05:23:14.317Z,22.60
2016-07-13T05:24:11.233Z,22.60
2016-07-13T05:25:16.361Z,22.60
2016-07-13T05:26:11.655Z,22.60
2016-07-13T05:27:14.631Z,22.60
2016-07-13T05:28:11.159Z,22.60
2016-07-13T05:29:15.570Z,22.70
2016-07-13T05:30:13.107Z,22.60
2016-07-13T05:31:12.410Z,22.70
2016-07-13T05:32:12.109Z,22.70
2016-07-13T05:33:09.465Z,22.70
2016-07-13T05:34:11.524Z,22.70
2016-07-13T05:35:13.081Z,22.70
2016-07-13T05:36:12.139Z,22.60
2016-07-13T05:37:11.223Z,22.70
2016-07-13T05:38:13.893Z,22.70
2016-07-13T05:39:11.398Z,22.60
2016-07-13T05:40:14.855Z,22.70
2016-07-13T05:41:13.098Z,22.70
2016-07-13T05:42:14.858Z,22.60
2016-07-13T05:43:11.580Z,22.70
2016-07-13T05:44:10.094Z,22.60
2016-07-13T05:45:14.661Z,22.60
2016-07-13T05:46:10.780Z,22.60
2016-07-13T05:47:12.322Z,22.70
2016-07-13T05:48:12.031Z,22.70
2016-07-13T05:49:11.518Z,22.60
2016-07-13T05:50:11.216Z,22.70
2016-07-13T05:51:15.015Z,22.70
2016-07-13T05:52:14.210Z,22.70
2016-07-13T05:53:13.901Z,22.70
2016-07-13T05:54:13.500Z,22.70
2016-07-13T05:55:14.940Z,22.70
2016-07-13T05:56:11.466Z,22.70
2016-07-13T05:57:12.089Z,22.70
2016-07-13T05:58:12.457Z,22.70
2016-07-13T05:59:10.716Z,22.70
2016-07-13T06:00:10.824Z,22.70
2016-07-13T06:01:11.624Z,22.70
2016-07-13T06:02:12.637Z,22.70
2016-07-13T06:03:10.800Z,22.70
2016-07-13T06:04:14.393Z,22.80
2016-07-13T06:05:12.149Z,22.80
2016-07-13T06:06:11.148Z,22.80
2016-07-13T06:07:11.758Z,22.50
2016-07-13T06:08:11.349Z,22.20
2016-07-13T06:09:11.673Z,22.00
2016-07-13T06:10:11.761Z,21.70
2016-07-13T06:11:21.803Z,21.50
2016-07-13T06:12:12.977Z,21.40
2016-07-13T06:13:14.798Z,21.30
2016-07-13T06:14:14.856Z,21.20
2016-07-13T06:15:11.955Z,21.10
2016-07-13T06:16:13.154Z,21.10
2016-07-13T06:17:16.777Z,21.00
2016-07-13T06:18:13.050Z,21.00
2016-07-13T06:19:13.580Z,21.00
2016-07-13T06:20:14.149Z,20.90
2016-07-13T06:21:13.391Z,20.90
2016-07-13T06:22:14.423Z,20.90
2016-07-13T06:23:16.581Z,20.90
2016-07-13T06:24:15.499Z,20.90
2016-07-13T06:25:14.956Z,20.90
2016-07-13T06:26:13.632Z,21.00
2016-07-13T06:27:15.176Z,21.10
2016-07-13T06:28:12.000Z,21.30
2016-07-13T06:29:11.714Z,21.40
2016-07-13T06:30:12.843Z,21.50
2016-07-13T06:31:12.851Z,21.60
2016-07-13T06:32:14.233Z,21.70
2016-07-13T06:33:12.661Z,21.80
2016-07-13T06:34:11.542Z,21.90
2016-07-13T06:35:14.926Z,21.90
2016-07-13T06:36:14.892Z,22.00
2016-07-13T06:37:12.794Z,22.00
2016-07-13T06:38:12.839Z,22.00
2016-07-13T06:39:13.525Z,22.10
2016-07-13T06:40:13.839Z,22.10
2016-07-13T06:41:12.435Z,22.10
2016-07-13T06:42:14.365Z,22.20
2016-07-13T06:43:11.301Z,22.20
2016-07-13T06:44:12.333Z,22.20
2016-07-13T06:45:13.356Z,22.20
2016-07-13T06:46:12.041Z,22.20
2016-07-13T06:47:11.432Z,22.20
2016-07-13T06:48:14.791Z,22.20
2016-07-13T06:49:12.223Z,22.20
2016-07-13T06:50:10.738Z,22.30
2016-07-13T06:51:15.250Z,22.30
2016-07-13T06:52:12.030Z,22.30
2016-07-13T06:53:11.068Z,22.30
2016-07-13T06:54:12.202Z,22.30
2016-07-13T06:55:13.641Z,22.30
2016-07-13T06:56:11.191Z,22.30
2016-07-13T06:57:11.301Z,22.30
2016-07-13T06:58:11.822Z,22.30
2016-07-13T06:59:14.184Z,22.30
2016-07-13T07:00:13.167Z,22.30
2016-07-13T07:01:14.814Z,22.40
2016-07-13T07:02:12.260Z,22.30
2016-07-13T07:03:12.473Z,22.30
2016-07-13T07:04:12.176Z,22.30
2016-07-13T07:05:12.752Z,22.40
2016-07-13T07:06:14.240Z,22.40
2016-07-13T07:07:11.466Z,22.40
2016-07-13T07:08:11.587Z,22.40
2016-07-13T07:09:11.082Z,22.40
2016-07-13T07:10:11.910Z,22.40
2016-07-13T07:11:15.153Z,22.40
2016-07-13T07:12:15.509Z,22.40
2016-07-13T07:13:13.366Z,22.40
2016-07-13T07:14:12.246Z,22.40
2016-07-13T07:15:12.867Z,22.40
2016-07-13T07:16:13.286Z,22.40
2016-07-13T07:17:12.767Z,22.40
2016-07-13T07:18:12.480Z,22.40
2016-07-13T07:19:14.752Z,22.40
2016-07-13T07:20:13.109Z,22.40
2016-07-13T07:21:14.814Z,22.40
2016-07-13T07:22:14.354Z,22.40
2016-07-13T07:23:11.084Z,22.40
2016-07-13T07:24:12.166Z,22.40
2016-07-13T07:25:13.006Z,22.40
2016-07-13T07:26:13.770Z,22.40
2016-07-13T07:27:11.421Z,22.40
2016-07-13T07:28:10.917Z,22.40
2016-07-13T07:29:14.896Z,22.40
2016-07-13T07:30:17.130Z,22.40
2016-07-13T07:31:14.625Z,22.40
2016-07-13T07:32:14.940Z,22.40
2016-07-13T07:33:15.548Z,22.40
2016-07-13T07:34:13.890Z,22.40
2016-07-13T07:35:13.108Z,22.40
2016-07-13T07:36:13.441Z,22.40
2016-07-13T07:37:11.905Z,22.40
2016-07-13T07:38:12.627Z,22.40
2016-07-13T07:39:09.842Z,22.50
2016-07-13T07:40:12.028Z,22.50
2016-07-13T07:41:14.697Z,22.40
2016-07-13T07:42:14.778Z,22.40
2016-07-13T07:43:10.065Z,22.50
2016-07-13T07:44:13.426Z,22.40
2016-07-13T07:45:12.066Z,22.50
2016-07-13T07:46:12.482Z,22.50
2016-07-13T07:47:10.646Z,22.50
2016-07-13T07:48:12.088Z,22.50
2016-07-13T07:49:13.323Z,22.50
2016-07-13T07:50:12.034Z,22.50
2016-07-13T07:51:16.103Z,22.50
2016-07-13T07:52:12.527Z,22.50
2016-07-13T07:53:15.118Z,22.50
2016-07-13T07:54:10.390Z,22.50
2016-07-13T07:55:13.061Z,22.50
2016-07-13T07:56:12.495Z,22.50
2016-07-13T07:57:12.522Z,22.50
2016-07-13T07:58:13.185Z,22.50
2016-07-13T07:59:11.149Z,22.50
2016-07-13T08:00:11.828Z,22.50
2016-07-13T08:01:15.993Z,22.50
2016-07-13T08:02:13.107Z,22.50
2016-07-13T08:03:15.085Z,22.50
2016-07-13T08:04:14.765Z,22.50
2016-07-13T08:05:16.295Z,22.50
2016-07-13T08:06:11.262Z,22.50
2016-07-13T08:07:11.327Z,22.50
2016-07-13T08:08:13.872Z,22.50
2016-07-13T08:09:13.062Z,22.50
2016-07-13T08:10:11.840Z,22.50
2016-07-13T08:11:11.898Z,22.50
2016-07-13T08:12:11.649Z,22.50
2016-07-13T08:13:14.115Z,22.50
2016-07-13T08:14:11.665Z,22.50
2016-07-13T08:15:11.874Z,22.50
2016-07-13T08:16:13.214Z,22.50
2016-07-13T08:17:14.144Z,22.50
2016-07-13T08:18:13.741Z,22.50
2016-07-13T08:19:15.033Z,22.50
2016-07-13T08:20:15.803Z,22.50
2016-07-13T08:21:14.116Z,22.50
2016-07-13T08:22:12.909Z,22.50
2016-07-13T08:23:12.141Z,22.50
2016-07-13T08:24:09.951Z,22.50
2016-07-13T08:25:09.779Z,22.50
2016-07-13T08:26:15.336Z,22.50
2016-07-13T08:27:13.460Z,22.50
2016-07-13T08:28:16.344Z,22.50
2016-07-13T08:29:13.516Z,22.50
2016-07-13T08:30:12.675Z,22.50
2016-07-13T08:31:16.089Z,22.50
2016-07-13T08:32:12.616Z,22.50
2016-07-13T08:33:11.906Z,22.50
2016-07-13T08:34:12.424Z,22.50
2016-07-13T08:35:12.945Z,22.50
2016-07-13T08:36:13.670Z,22.60
2016-07-13T08:37:11.878Z,22.50
2016-07-13T08:38:12.659Z,22.60
2016-07-13T08:39:12.829Z,22.60
2016-07-13T08:40:13.806Z,22.60
2016-07-13T08:41:14.169Z,22.60
2016-07-13T08:42:12.025Z,22.60
2016-07-13T08:43:13.618Z,22.60
2016-07-13T08:44:14.854Z,22.60
2016-07-13T08:45:12.096Z,22.60
2016-07-13T08:46:14.122Z,22.60
2016-07-13T08:47:14.365Z,22.60
2016-07-13T08:48:11.822Z,22.60
2016-07-13T08:49:12.026Z,22.60
2016-07-13T08:50:11.743Z,22.60
2016-07-13T08:51:14.087Z,22.60
2016-07-13T08:52:11.432Z,22.60
2016-07-13T08:53:11.541Z,22.60
2016-07-13T08:54:12.472Z,22.60
2016-07-13T08:55:11.285Z,22.60
2016-07-13T08:56:14.124Z,22.60
2016-07-13T08:57:15.082Z,22.60
2016-07-13T08:58:14.041Z,22.60
2016-07-13T08:59:11.591Z,22.60
2016-07-13T09:00:10.979Z,22.60
2016-07-13T09:01:12.524Z,22.60
2016-07-13T09:02:11.096Z,22.60
2016-07-13T09:03:09.461Z,22.60
2016-07-13T09:04:13.503Z,22.60
2016-07-13T09:05:10.231Z,22.60
2016-07-13T09:06:11.840Z,22.60
2016-07-13T09:07:12.977Z,22.60
2016-07-13T09:08:14.212Z,22.60
2016-07-13T09:09:13.299Z,22.60
2016-07-13T09:10:14.944Z,22.60
2016-07-13T09:11:11.492Z,22.60
2016-07-13T09:12:11.782Z,22.60
2016-07-13T09:13:13.328Z,22.60
2016-07-13T09:14:12.520Z,22.60
2016-07-13T09:15:10.680Z,22.60
2016-07-13T09:16:14.231Z,22.60
2016-07-13T09:17:13.869Z,22.60
2016-07-13T09:18:15.206Z,22.60
2016-07-13T09:19:12.653Z,22.60
2016-07-13T09:20:13.092Z,22.60
2016-07-13T09:21:11.644Z,22.60
2016-07-13T09:22:10.934Z,22.60
2016-07-13T09:23:15.743Z,22.60
2016-07-13T09:24:16.542Z,22.60
2016-07-13T09:25:15.873Z,22.60
2016-07-13T09:26:11.579Z,22.60
2016-07-13T09:27:12.200Z,22.60
2016-07-13T09:28:12.105Z,22.60
2016-07-13T09:29:10.987Z,22.60
2016-07-13T09:30:13.031Z,22.60
2016-07-13T09:31:11.717Z,22.60
2016-07-13T09:32:13.467Z,22.60
2016-07-13T09:33:11.631Z,22.60
2016-07-13T09:34:15.120Z,22.60
2016-07-13T09:35:11.602Z,22.60
2016-07-13T09:36:13.701Z,22.60
2016-07-13T09:37:13.444Z,22.60
2016-07-13T09:38:12.692Z,22.60
2016-07-13T09:39:10.989Z,22.60
2016-07-13T09:40:13.899Z,22.60
2016-07-13T09:41:12.830Z,22.60
2016-07-13T09:42:11.900Z,22.60
2016-07-13T09:43:11.397Z,22.50
2016-07-13T09:44:12.224Z,22.60
2016-07-13T09:45:10.619Z,22.60
2016-07-13T09:46:12.341Z,22.60
2016-07-13T09:47:14.090Z,22.60
2016-07-13T09:48:12.324Z,22.60
2016-07-13T09:49:13.488Z,22.50
2016-07-13T09:50:15.237Z,22.60
2016-07-13T09:51:11.863Z,22.60
2016-07-13T09:52:13.717Z,22.60
2016-07-13T09:53:12.597Z,22.60
2016-07-13T09:54:14.992Z,22.60
2016-07-13T09:55:11.793Z,22.60
2016-07-13T09:56:13.437Z,22.60
2016-07-13T09:57:13.008Z,22.60
2016-07-13T09:58:14.580Z,22.60
2016-07-13T09:59:12.538Z,22.50
2016-07-13T10:00:10.133Z,22.60
2016-07-13T10:01:13.336Z,22.50
2016-07-13T10:02:10.819Z,22.60
2016-07-13T10:03:11.543Z,22.50
2016-07-13T10:04:13.087Z,22.50
2016-07-13T10:05:12.786Z,22.50
2016-07-13T10:06:15.499Z,22.50
2016-07-13T10:07:10.755Z,22.50
2016-07-13T10:08:12.207Z,22.50
2016-07-13T10:09:16.298Z,22.50
2016-07-13T10:10:12.107Z,22.50
2016-07-13T10:11:11.296Z,22.50
2016-07-13T10:12:13.556Z,22.50
2016-07-13T10:13:11.078Z,22.50
2016-07-13T10:14:14.751Z,22.50
2016-07-13T10:15:14.745Z,22.50
2016-07-13T10:16:13.383Z,22.50
2016-07-13T10:17:13.592Z,22.50
2016-07-13T10:18:12.370Z,22.50
2016-07-13T10:19:12.789Z,22.50
2016-07-13T10:20:13.104Z,22.50
2016-07-13T10:21:16.182Z,22.50
2016-07-13T10:22:15.192Z,22.50
2016-07-13T10:23:11.793Z,22.50
2016-07-13T10:24:11.494Z,22.50
2016-07-13T10:25:12.320Z,22.50
2016-07-13T10:26:10.200Z,22.60
2016-07-13T10:27:13.973Z,22.60
2016-07-13T10:28:15.498Z,22.50
2016-07-13T10:29:12.248Z,22.60
2016-07-13T10:30:10.822Z,22.50
2016-07-13T10:31:12.394Z,22.60
2016-07-13T10:32:12.474Z,22.50
2016-07-13T10:33:11.562Z,22.50
2016-07-13T10:34:13.001Z,22.50
2016-07-13T10:35:15.466Z,22.50
2016-07-13T10:36:17.516Z,22.60
2016-07-13T10:37:11.385Z,22.60
2016-07-13T10:38:13.339Z,22.60
2016-07-13T10:39:15.514Z,22.60
2016-07-13T10:40:12.737Z,22.60
2016-07-13T10:41:12.848Z,22.60
2016-07-13T10:42:11.218Z,22.60
2016-07-13T10:43:13.988Z,22.60
2016-07-13T10:44:11.845Z,22.60
2016-07-13T10:45:17.484Z,22.60
2016-07-13T10:46:11.452Z,22.60
2016-07-13T10:47:12.789Z,22.60
2016-07-13T10:48:09.682Z,22.60
2016-07-13T10:49:14.984Z,22.60
2016-07-13T10:50:13.324Z,22.60
2016-07-13T10:51:11.148Z,22.60
2016-07-13T10:52:11.304Z,22.60
2016-07-13T10:53:14.164Z,22.60
2016-07-13T10:54:12.228Z,22.60
2016-07-13T10:55:13.977Z,22.60
2016-07-13T10:56:12.345Z,22.60
2016-07-13T10:57:11.225Z,22.60
2016-07-13T10:58:13.388Z,22.60
2016-07-13T10:59:15.524Z,22.60
2016-07-13T11:00:14.916Z,22.60
2016-07-13T11:01:15.651Z,22.60
2016-07-13T11:02:15.954Z,22.60
2016-07-13T11:03:11.883Z,22.60
2016-07-13T11:04:16.806Z,22.60
2016-07-13T11:05:12.911Z,22.70
2016-07-13T11:06:11.488Z,22.60
2016-07-13T11:07:12.834Z,22.60
2016-07-13T11:08:13.356Z,22.60
2016-07-13T11:09:14.581Z,22.60
2016-07-13T11:10:15.592Z,22.70
2016-07-13T11:11:09.757Z,22.70
2016-07-13T11:12:16.048Z,22.60
2016-07-13T11:13:11.036Z,22.60
2016-07-13T11:14:12.476Z,22.60
2016-07-13T11:15:11.561Z,22.60
2016-07-13T11:16:13.580Z,22.60
2016-07-13T11:17:13.719Z,22.60
2016-07-13T11:18:11.994Z,22.60
2016-07-13T11:19:13.128Z,22.60
2016-07-13T11:20:12.713Z,22.60
2016-07-13T11:21:10.991Z,22.60
2016-07-13T11:22:15.091Z,22.60
2016-07-13T11:23:15.299Z,22.60
2016-07-13T11:24:13.779Z,22.60
2016-07-13T11:25:13.018Z,22.60
2016-07-13T11:26:11.746Z,22.60
2016-07-13T11:27:13.392Z,22.60
2016-07-13T11:28:12.785Z,22.60
2016-07-13T11:29:12.997Z,22.60
2016-07-13T11:30:14.438Z,22.60
2016-07-13T11:31:13.499Z,22.60
2016-07-13T11:32:11.380Z,22.60
2016-07-13T11:33:14.356Z,22.60
2016-07-13T11:34:12.401Z,22.60
2016-07-13T11:35:11.053Z,22.60
2016-07-13T11:36:13.765Z,22.60
2016-07-13T11:37:12.908Z,22.60
2016-07-13T11:38:13.370Z,22.60
2016-07-13T11:39:09.810Z,22.60
2016-07-13T11:40:12.360Z,22.60
2016-07-13T11:41:12.470Z,22.60
2016-07-13T11:42:15.593Z,22.60
2016-07-13T11:43:15.470Z,22.60
2016-07-13T11:44:12.800Z,22.60
2016-07-13T11:45:09.815Z,22.60
2016-07-13T11:46:13.429Z,22.60
2016-07-13T11:47:12.351Z,22.60
2016-07-13T11:48:12.931Z,22.60
2016-07-13T11:49:11.301Z,22.60
2016-07-13T11:50:14.815Z,22.60
2016-07-13T11:51:16.881Z,22.60
2016-07-13T11:52:12.347Z,22.60
2016-07-13T11:53:14.811Z,22.50
2016-07-13T11:54:16.243Z,22.60
2016-07-13T11:55:11.039Z,22.50
2016-07-13T11:56:10.655Z,22.60
2016-07-13T11:57:12.177Z,22.50
2016-07-13T11:58:11.264Z,22.60
2016-07-13T11:59:12.399Z,22.50
2016-07-13T12:00:12.609Z,22.50
2016-07-13T12:01:11.595Z,22.50
2016-07-13T12:02:14.572Z,22.50
2016-07-13T12:03:12.120Z,22.50
2016-07-13T12:04:14.853Z,22.50
2016-07-13T12:05:11.931Z,22.50
2016-07-13T12:06:15.216Z,22.50
2016-07-13T12:07:14.916Z,22.50
2016-07-13T12:08:12.365Z,22.50
2016-07-13T12:09:12.110Z,22.50
2016-07-13T12:10:17.622Z,22.50
2016-07-13T12:11:16.071Z,22.50
2016-07-13T12:12:14.644Z,22.50
2016-07-13T12:13:11.683Z,22.50
2016-07-13T12:14:13.021Z,22.50
2016-07-13T12:15:12.312Z,22.50
2016-07-13T12:16:10.885Z,22.50
2016-07-13T12:17:14.701Z,22.50
2016-07-13T12:18:11.310Z,22.50
2016-07-13T12:19:12.034Z,22.50
2016-07-13T12:20:16.716Z,22.50
2016-07-13T12:21:11.130Z,22.50
2016-07-13T12:22:16.387Z,22.50
2016-07-13T12:23:13.397Z,22.50
2016-07-13T12:24:15.246Z,22.50
2016-07-13T12:25:14.788Z,22.50
2016-07-13T12:26:12.903Z,22.50
2016-07-13T12:27:10.866Z,22.50
2016-07-13T12:28:13.023Z,22.50
2016-07-13T12:29:12.777Z,22.50
2016-07-13T12:30:12.629Z,22.50
2016-07-13T12:31:12.373Z,22.50
2016-07-13T12:32:13.210Z,22.50
2016-07-13T12:33:12.956Z,22.50
2016-07-13T12:34:16.732Z,22.50
2016-07-13T12:35:11.742Z,22.50
2016-07-13T12:36:11.954Z,22.50
2016-07-13T12:37:15.733Z,22.50
2016-07-13T12:38:10.743Z,22.50
2016-07-13T12:39:11.466Z,22.50
2016-07-13T12:40:15.732Z,22.50
2016-07-13T12:41:15.791Z,22.50
2016-07-13T12:42:16.812Z,22.50
2016-07-13T12:43:11.767Z,22.50
2016-07-13T12:44:16.643Z,22.50
2016-07-13T12:45:13.510Z,22.50
2016-07-13T12:46:12.950Z,22.50
2016-07-13T12:47:15.036Z,22.50
2016-07-13T12:48:14.399Z,22.50
2016-07-13T12:49:14.294Z,22.50
2016-07-13T12:50:09.492Z,22.50
2016-07-13T12:51:16.352Z,22.50
2016-07-13T12:52:11.456Z,22.50
2016-07-13T12:53:16.239Z,22.50
2016-07-13T12:54:11.371Z,22.50
2016-07-13T12:55:11.991Z,22.50
2016-07-13T12:56:12.000Z,22.50
2016-07-13T12:57:14.463Z,22.50
2016-07-13T12:58:13.895Z,22.50
2016-07-13T12:59:13.045Z,22.50
2016-07-13T13:00:15.065Z,22.50
2016-07-13T13:01:15.067Z,22.50
2016-07-13T13:02:16.121Z,22.50
2016-07-13T13:03:12.870Z,22.50